Terminal Aerodrome Forecast
Issued by NWS

Home | Current Version | Previous Version | Text Only | Print | Product List | Glossary On
Versions: 1 2 3 4 5 6 7 8 9 10 11 12 13
586
FTUS44 KEPZ 270533
TAFDMN
TAF
KDMN 270533Z 2706/2806 31007KT P6SM SKC
     FM271800 26014KT P6SM SKC
     FM280200 23008KT P6SM SKC=

USA.gov is the U.S. government's official web portal to all federal, state and local government web resources and services.